الصفحة الرئيسية
METAR-TAF:

METAR-TAF

مطار :

Mae Sot, تايلاند

دائرة عرض: 16-40N, خط طول: 098-33E, ارتفاع: 196 متر

مراقبة الطقس الحالي

تاريخ ووقت الإصدار 7ساعات و 58 دقيقة قبل الساعة 11:00UTC
ريح 5 عقدة من الغرب/الشمال الغربي
درجة الحرارة 27°درجة مئوية
الرطوبة 79%
ضغط 1011 hPa
الرؤية 10 كم أو أكثر
غيوم قليلة على ارتفاع 3000 قدم

METAR: VTPM 211100Z 29005KT 9999 FEW030 27/23 Q1011 NOSIG

زمن: 01:58 (18:58 UTC)

توقعات

تاريخ ووقت الإصدار 1ساعة و 58 دقيقة قبل الساعة 17:00UTC
التوقعات صالحة من21 الساعة 18 UTC إلى 22 الساعة 18 UTC
ريح 5 عقدة من الغرب
الرؤية 10 كم أو أكثر
غيوم متفرقة على ارتفاع 3000 قدم
مؤقت
من 22 الساعة 07 UTC إلى 22 الساعة 12 UTC
ريح 15 عقدة من الغرب تتزايد حتى 25 عقدة
الرؤية: 4000 متر
غيوم قليلة على ارتفاع 2000 قدم, مزنة ركامية.
غيوم مفككة على ارتفاع 3000 قدم
عاصفة رعدية, مطر

TAF: VTPM 211700Z 2118/2218 27005KT 9999 SCT030 TEMPO 2207/2212 26015G25KT 4000 TSRA FEW020CB BKN030

أرصاد الطقس والتوقعات من أكثر من 4000 مطار (تقارير الطقس للمطار METAR والتنبؤ بالطقس بالمطارTAF).

المحطات المتاحة هي النقط الصفراء والحمراء على الخريطة.

حرك المؤشر فوق النقطة لمعرفة اسم المحطة.

ثم انقر لمعرفة أرصاد وتوقعات الطقس.

لتغيير الخارطة: اضغط على الأزرار الخضراء مع رمز الصليب الأسود للتكبير. على الزر الأخضر مع شرطة للتصغير، أو على الأسهم الخضراء للخرائط المجاورة.


METAR-TAF: